Time;durP1;ratioP1;P1;durP2;ratioP2;P2;SDS_P1;SDS_P2;PMS_P1;PMS_P2;Temp;Humidity;BMP_temperature;BMP_pressure;BME280_temperature;BME280_humidity;BME280_pressure;Samples;Min_cycle;Max_cycle;Signal;HPM_P1;HPM_P2
2021/11/28 00:01:14;;;;;;;12.80;8.07;;;4.60;92.30;;;;;;5006830;28;20061;-66
2021/11/28 00:03:41;;;;;;;14.80;7.70;;;4.70;92.40;;;;;;5011168;28;20041;-66
2021/11/28 00:06:43;;;;;;;12.40;6.72;;;4.80;92.50;;;;;;5006972;28;20060;-66
2021/11/28 00:09:27;;;;;;;12.25;7.55;;;4.80;92.50;;;;;;5002841;28;20042;-66
2021/11/28 00:12:42;;;;;;;13.88;7.07;;;4.90;92.40;;;;;;5010903;28;20166;-67
2021/11/28 00:14:41;;;;;;;15.05;7.68;;;5.00;92.40;;;;;;4996287;28;20042;-66
2021/11/28 00:17:08;;;;;;;13.25;7.68;;;5.10;92.40;;;;;;5007080;28;20041;-72
2021/11/28 00:19:35;;;;;;;12.30;7.20;;;5.20;92.30;;;;;;5011335;28;20049;-72
2021/11/28 00:22:01;;;;;;;14.30;7.72;;;5.20;92.20;;;;;;5005413;28;20033;-72
2021/11/28 00:24:27;;;;;;;12.43;7.28;;;5.30;92.20;;;;;;5004264;28;20032;-72
2021/11/28 00:26:53;;;;;;;10.50;6.78;;;5.30;92.00;;;;;;5011273;28;20033;-72
2021/11/28 00:29:19;;;;;;;11.73;6.72;;;5.30;92.00;;;;;;5006126;28;20389;-73
2021/11/28 00:31:45;;;;;;;12.77;7.00;;;5.30;92.00;;;;;;5003804;28;20077;-72
2021/11/28 00:34:12;;;;;;;10.45;6.28;;;5.30;92.00;;;;;;5012144;28;20042;-72
2021/11/28 00:36:38;;;;;;;13.70;6.97;;;5.40;91.90;;;;;;5011201;28;20394;-73
2021/11/28 00:39:04;;;;;;;10.35;6.45;;;5.40;92.00;;;;;;5005026;28;20040;-73
2021/11/28 00:41:30;;;;;;;9.73;6.28;;;5.40;91.90;;;;;;5025344;28;20172;-73
2021/11/28 00:43:56;;;;;;;12.43;6.53;;;5.40;91.80;;;;;;5024208;28;20432;-73
2021/11/28 00:46:21;;;;;;;10.38;6.93;;;5.40;91.80;;;;;;5008538;28;20921;-72
2021/11/28 00:48:48;;;;;;;10.45;6.53;;;5.50;91.70;;;;;;5007463;28;20036;-72
2021/11/28 00:53:44;;;;;;;10.10;6.03;;;5.40;91.80;;;;;;5020523;28;20071;-72
2021/11/28 00:56:10;;;;;;;9.50;6.53;;;5.40;91.70;;;;;;5008678;28;20754;-72
2021/11/28 00:58:37;;;;;;;9.55;6.47;;;5.30;91.60;;;;;;5013728;28;20053;-73
2021/11/28 01:01:03;;;;;;;11.98;6.88;;;5.30;91.70;;;;;;5012435;28;20037;-72
2021/11/28 01:03:29;;;;;;;10.05;6.47;;;5.30;91.70;;;;;;5009979;28;20728;-72
2021/11/28 01:05:56;;;;;;;9.30;5.47;;;5.30;91.70;;;;;;5026246;28;20516;-72
2021/11/28 01:08:22;;;;;;;10.15;7.05;;;5.20;91.80;;;;;;5023630;28;20025;-72
2021/11/28 01:10:49;;;;;;;10.27;7.55;;;5.30;91.70;;;;;;5005589;28;20078;-65
2021/11/28 01:13:16;;;;;;;10.57;6.57;;;5.20;91.70;;;;;;5028219;28;20030;-65
2021/11/28 01:15:42;;;;;;;10.52;5.95;;;5.20;91.60;;;;;;5006554;28;20049;-65
2021/11/28 01:18:08;;;;;;;10.32;6.93;;;5.20;91.60;;;;;;5006338;28;20033;-65
2021/11/28 01:20:34;;;;;;;10.35;6.63;;;5.10;91.70;;;;;;5029526;28;20623;-65
2021/11/28 01:23:00;;;;;;;10.77;6.82;;;5.10;91.60;;;;;;5012868;28;20044;-65
2021/11/28 01:25:26;;;;;;;8.88;6.15;;;5.10;91.70;;;;;;5025202;28;20029;-66
2021/11/28 01:27:52;;;;;;;12.15;6.25;;;5.10;91.70;;;;;;5012845;28;20025;-65
2021/11/28 01:30:19;;;;;;;13.77;7.60;;;5.00;91.70;;;;;;5020272;28;20022;-65
2021/11/28 01:32:46;;;;;;;12.05;7.20;;;5.10;91.60;;;;;;5019233;28;20137;-65
2021/11/28 01:35:15;;;;;;;10.25;7.10;;;5.00;91.70;;;;;;5013191;28;20045;-66
2021/11/28 01:37:41;;;;;;;10.60;6.57;;;5.00;91.90;;;;;;5030639;28;20065;-66
2021/11/28 01:40:17;;;;;;;11.63;6.72;;;5.00;91.90;;;;;;5007344;28;20679;-65
2021/11/28 01:42:50;;;;;;;12.38;6.68;;;5.00;91.90;;;;;;5003650;28;20113;-66
2021/11/28 01:45:23;;;;;;;11.95;7.03;;;5.00;91.90;;;;;;5018269;28;20036;-64
2021/11/28 01:47:50;;;;;;;13.18;7.60;;;5.10;91.90;;;;;;5026011;28;20053;-71
2021/11/28 01:50:21;;;;;;;11.88;7.03;;;5.10;91.80;;;;;;5011288;28;20588;-73
2021/11/28 01:52:48;;;;;;;10.70;7.10;;;5.10;91.70;;;;;;5012228;28;20041;-72
2021/11/28 01:55:21;;;;;;;11.82;7.63;;;5.10;91.80;;;;;;5028980;28;20033;-73
2021/11/28 01:57:47;;;;;;;12.45;7.63;;;5.10;91.70;;;;;;5012538;28;20029;-72
2021/11/28 02:00:18;;;;;;;13.35;8.05;;;5.10;91.90;;;;;;5013534;28;20033;-65
2021/11/28 02:02:45;;;;;;;12.60;7.25;;;5.10;92.10;;;;;;5023623;28;20402;-65
2021/11/28 02:05:16;;;;;;;10.93;7.32;;;5.20;91.80;;;;;;5010365;28;20044;-65
2021/11/28 02:07:43;;;;;;;12.13;7.60;;;5.10;91.70;;;;;;5017296;28;20359;-66
2021/11/28 02:10:11;;;;;;;13.23;8.13;;;5.20;91.70;;;;;;5024533;28;20772;-66
2021/11/28 02:12:38;;;;;;;11.43;7.10;;;5.20;91.50;;;;;;5006917;28;20026;-66
2021/11/28 02:15:06;;;;;;;11.15;6.65;;;5.20;91.50;;;;;;5029950;28;20034;-67
2021/11/28 02:17:33;;;;;;;12.15;7.35;;;5.20;91.50;;;;;;5021683;28;20080;-69
2021/11/28 02:19:59;;;;;;;10.35;6.45;;;5.20;91.30;;;;;;5008639;28;20087;-66
2021/11/28 02:22:25;;;;;;;11.32;7.38;;;5.20;91.40;;;;;;5011154;28;20022;-66
2021/11/28 02:24:51;;;;;;;11.15;6.90;;;5.20;91.40;;;;;;5023652;28;20809;-65
2021/11/28 02:27:17;;;;;;;10.77;6.45;;;5.20;91.30;;;;;;5003102;28;20453;-65
2021/11/28 02:29:44;;;;;;;12.95;7.05;;;5.20;91.40;;;;;;4997949;28;20049;-65
2021/11/28 02:32:11;;;;;;;10.45;7.07;;;5.20;91.20;;;;;;5015230;28;21716;-67
2021/11/28 02:34:38;;;;;;;10.63;6.40;;;5.20;91.40;;;;;;5023326;28;20041;-72
2021/11/28 02:37:06;;;;;;;10.45;6.20;;;5.20;91.40;;;;;;5011797;28;20168;-73
2021/11/28 02:39:35;;;;;;;8.82;6.00;;;5.30;91.40;;;;;;5012551;28;20827;-72
2021/11/28 02:42:01;;;;;;;11.07;7.38;;;5.20;91.40;;;;;;5017773;28;20082;-73
2021/11/28 02:44:29;;;;;;;9.73;6.45;;;5.30;91.20;;;;;;5029005;28;20040;-72
2021/11/28 02:46:55;;;;;;;10.63;6.47;;;5.30;91.30;;;;;;5012194;28;20412;-73
2021/11/28 02:49:21;;;;;;;9.55;6.07;;;5.30;91.40;;;;;;5004879;28;20249;-68
2021/11/28 02:51:49;;;;;;;11.85;6.60;;;5.20;91.30;;;;;;5014176;28;20064;-66
2021/11/28 02:54:15;;;;;;;12.20;6.57;;;5.30;91.20;;;;;;5016178;28;20029;-66
2021/11/28 02:56:43;;;;;;;11.90;6.45;;;5.20;91.00;;;;;;5012142;28;20033;-66
2021/11/28 02:59:10;;;;;;;9.45;6.25;;;5.20;90.90;;;;;;5010245;28;20044;-66
2021/11/28 03:01:36;;;;;;;8.98;6.10;;;5.20;90.70;;;;;;5012206;28;20566;-67
2021/11/28 03:04:21;;;;;;;8.98;5.80;;;5.10;90.70;;;;;;5010966;28;20032;-66
2021/11/28 03:06:47;;;;;;;8.77;5.97;;;5.10;90.90;;;;;;5028677;28;20034;-67
2021/11/28 03:09:13;;;;;;;9.68;5.43;;;5.10;90.90;;;;;;5029769;28;20633;-66
2021/11/28 03:11:39;;;;;;;11.13;5.60;;;5.10;90.90;;;;;;5023247;28;20036;-66
2021/11/28 03:14:05;;;;;;;11.05;6.13;;;5.00;90.70;;;;;;5012672;28;20037;-67
2021/11/28 03:16:31;;;;;;;10.00;5.82;;;5.00;90.80;;;;;;5016936;28;20044;-67
2021/11/28 03:18:57;;;;;;;10.45;6.20;;;4.90;90.80;;;;;;5029887;28;20037;-66
2021/11/28 03:21:34;;;;;;;8.32;5.50;;;4.80;91.20;;;;;;5006833;28;20489;-67
2021/11/28 03:24:03;;;;;;;11.05;5.78;;;4.70;91.00;;;;;;5029247;28;20777;-66
2021/11/28 03:26:38;;;;;;;8.32;4.78;;;4.60;91.00;;;;;;5010303;28;20025;-66
2021/11/28 03:29:13;;;;;;;8.95;5.28;;;4.50;90.90;;;;;;5014261;28;20025;-67
2021/11/28 03:31:58;;;;;;;8.23;5.30;;;4.40;91.00;;;;;;5014027;28;20048;-66
2021/11/28 03:34:42;;;;;;;9.13;6.03;;;4.30;91.10;;;;;;5003341;28;20076;-67
2021/11/28 03:37:16;;;;;;;8.52;5.35;;;4.20;91.10;;;;;;5026658;28;20462;-66
2021/11/28 03:39:42;;;;;;;9.38;5.65;;;4.00;91.10;;;;;;5031171;28;20041;-66
2021/11/28 03:42:08;;;;;;;11.98;5.38;;;4.00;91.30;;;;;;5036625;28;20116;-66
2021/11/28 03:44:38;;;;;;;8.55;5.72;;;3.90;91.40;;;;;;5026281;28;20564;-66
2021/11/28 03:47:09;;;;;;;8.27;5.07;;;3.80;91.40;;;;;;5011490;28;20564;-67
2021/11/28 03:49:35;;;;;;;9.65;5.18;;;3.80;91.40;;;;;;5021037;28;20033;-66
2021/11/28 03:52:03;;;;;;;9.30;5.13;;;3.70;91.50;;;;;;5026500;28;20029;-67
2021/11/28 03:54:30;;;;;;;11.30;6.47;;;3.60;91.60;;;;;;5011674;28;20130;-66
2021/11/28 03:56:56;;;;;;;9.82;6.20;;;3.60;91.80;;;;;;5008433;28;20034;-65
2021/11/28 03:59:24;;;;;;;12.10;5.40;;;3.60;91.70;;;;;;5019591;28;20526;-67
2021/11/28 04:01:50;;;;;;;12.07;6.63;;;3.50;91.80;;;;;;5014210;28;20034;-66
2021/11/28 04:04:17;;;;;;;10.55;6.82;;;3.40;91.80;;;;;;5012246;28;20030;-67
2021/11/28 04:07:06;;;;;;;10.40;6.13;;;3.40;92.00;;;;;;4988245;28;20044;-66
2021/11/28 04:09:34;;;;;;;9.82;6.20;;;3.40;92.10;;;;;;5026216;28;20057;-66
2021/11/28 04:12:04;;;;;;;11.27;6.65;;;3.30;92.10;;;;;;5006228;28;20029;-66
2021/11/28 04:14:30;;;;;;;10.18;6.35;;;3.30;92.10;;;;;;5025323;28;20735;-66
2021/11/28 04:16:56;;;;;;;11.40;5.88;;;3.30;92.10;;;;;;5011581;28;20108;-66
2021/11/28 04:19:22;;;;;;;12.60;6.95;;;3.20;92.10;;;;;;5011759;28;20038;-66
2021/11/28 04:21:49;;;;;;;10.35;5.30;;;3.20;92.30;;;;;;5021240;28;20120;-66
2021/11/28 04:24:16;;;;;;;10.95;6.20;;;3.20;92.30;;;;;;5029036;28;20112;-66
2021/11/28 04:26:43;;;;;;;9.02;6.13;;;3.20;92.30;;;;;;5032318;28;20029;-66
2021/11/28 04:29:10;;;;;;;10.88;6.82;;;3.10;92.30;;;;;;5024508;28;20030;-66
2021/11/28 04:31:37;;;;;;;12.32;6.72;;;3.10;92.40;;;;;;5002253;28;20421;-66
2021/11/28 04:34:04;;;;;;;13.50;6.82;;;3.10;92.20;;;;;;5000798;28;20033;-66
2021/11/28 04:36:32;;;;;;;9.98;6.40;;;3.10;92.10;;;;;;5022692;28;20115;-66
2021/11/28 04:38:58;;;;;;;11.63;6.60;;;3.00;92.20;;;;;;5026579;28;20033;-66
2021/11/28 04:41:24;;;;;;;12.48;6.72;;;3.00;92.00;;;;;;5012596;28;20055;-66
2021/11/28 04:43:55;;;;;;;10.55;6.45;;;2.90;92.00;;;;;;5016615;28;20030;-66
2021/11/28 04:46:21;;;;;;;12.18;7.03;;;2.90;92.20;;;;;;5008892;28;20049;-66
2021/11/28 04:48:48;;;;;;;11.75;7.05;;;2.80;92.20;;;;;;5031496;28;20107;-66
2021/11/28 04:51:26;;;;;;;9.50;5.60;;;2.80;92.30;;;;;;5024752;28;20022;-66
2021/11/28 04:53:53;;;;;;;12.40;6.75;;;2.80;92.40;;;;;;5023067;28;20040;-66
2021/11/28 04:56:19;;;;;;;10.65;6.53;;;2.80;92.30;;;;;;5009618;28;20601;-66
2021/11/28 04:58:45;;;;;;;11.73;6.60;;;2.70;92.10;;;;;;5023474;28;20038;-66
2021/11/28 05:01:11;;;;;;;10.60;6.25;;;2.70;92.10;;;;;;5009262;28;20037;-66
2021/11/28 05:03:38;;;;;;;11.88;6.75;;;2.60;92.10;;;;;;5015595;28;20037;-66
2021/11/28 05:06:27;;;;;;;10.10;6.25;;;2.60;92.10;;;;;;5001018;28;20049;-66
2021/11/28 05:09:28;;;;;;;12.05;6.30;;;2.50;92.20;;;;;;5006657;28;20168;-66
2021/11/28 05:11:54;;;;;;;10.50;6.28;;;2.50;92.40;;;;;;5032278;28;20124;-66
2021/11/28 05:14:22;;;;;;;12.70;6.78;;;2.50;92.40;;;;;;5032237;28;20084;-66
2021/11/28 05:16:50;;;;;;;14.45;7.97;;;2.50;92.30;;;;;;5027155;28;20124;-66
2021/11/28 05:19:31;;;;;;;11.93;6.45;;;2.50;92.40;;;;;;5014066;28;20117;-66
2021/11/28 05:22:20;;;;;;;11.77;6.95;;;2.50;92.30;;;;;;5007124;28;20698;-66
2021/11/28 05:24:47;;;;;;;10.05;6.43;;;2.50;92.40;;;;;;5032735;28;20034;-66
2021/11/28 05:27:14;;;;;;;13.30;7.35;;;2.50;92.50;;;;;;5015293;28;20076;-66
2021/11/28 05:29:40;;;;;;;11.73;6.72;;;2.50;92.60;;;;;;5025680;28;20512;-66
2021/11/28 05:32:08;;;;;;;25.00;7.18;;;2.40;92.60;;;;;;5025806;28;20115;-66
2021/11/28 05:35:12;;;;;;;14.93;6.93;;;2.40;92.50;;;;;;4976478;28;20081;-66
2021/11/28 05:37:45;;;;;;;13.65;6.82;;;2.40;92.30;;;;;;4973340;28;20038;-66
2021/11/28 05:40:16;;;;;;;13.93;7.75;;;2.30;92.10;;;;;;4979945;28;20110;-66
2021/11/28 05:42:47;;;;;;;11.25;6.53;;;2.30;92.30;;;;;;5032188;28;20120;-66
2021/11/28 05:45:13;;;;;;;11.95;7.07;;;2.30;92.30;;;;;;5023976;28;20064;-66
2021/11/28 05:47:38;;;;;;;15.98;7.32;;;2.30;92.50;;;;;;5010205;28;21022;-66
2021/11/28 05:50:20;;;;;;;9.63;6.00;;;2.30;92.60;;;;;;5022093;28;20036;-67
2021/11/28 05:52:49;;;;;;;11.95;7.00;;;2.30;92.60;;;;;;5013200;28;20490;-66
2021/11/28 05:55:15;;;;;;;12.45;6.38;;;2.30;92.60;;;;;;5013317;28;20037;-66
2021/11/28 05:57:47;;;;;;;11.30;7.05;;;2.30;92.40;;;;;;5020061;28;20632;-66
2021/11/28 06:00:15;;;;;;;16.60;8.18;;;2.30;92.30;;;;;;5022065;28;20025;-66
2021/11/28 06:02:51;;;;;;;13.10;7.20;;;2.30;92.30;;;;;;5013132;28;20622;-67
2021/11/28 06:05:37;;;;;;;11.50;6.68;;;2.20;92.30;;;;;;5017593;28;20382;-66
2021/11/28 06:08:21;;;;;;;16.83;7.95;;;2.20;92.70;;;;;;5011676;28;20037;-67
2021/11/28 06:10:48;;;;;;;14.63;7.82;;;2.20;93.00;;;;;;5032732;28;20108;-67
2021/11/28 06:13:15;;;;;;;11.82;6.75;;;2.30;93.10;;;;;;5034608;28;20037;-66
2021/11/28 06:15:47;;;;;;;12.32;7.20;;;2.30;92.90;;;;;;5032419;28;20033;-67
2021/11/28 06:18:33;;;;;;;14.37;8.20;;;2.30;92.90;;;;;;5015834;28;20046;-66
2021/11/28 06:21:19;;;;;;;12.80;7.70;;;2.30;92.90;;;;;;5020991;28;20114;-66
2021/11/28 06:23:58;;;;;;;12.65;6.90;;;2.30;93.00;;;;;;5024832;28;20117;-66
2021/11/28 06:26:24;;;;;;;11.90;6.80;;;2.30;93.00;;;;;;5014157;28;20637;-66
2021/11/28 06:28:50;;;;;;;12.00;6.57;;;2.30;92.90;;;;;;5033035;28;20033;-66
2021/11/28 06:31:17;;;;;;;12.13;6.60;;;2.30;92.70;;;;;;5008975;28;20035;-66
2021/11/28 06:34:03;;;;;;;14.20;7.13;;;2.30;93.00;;;;;;5017050;28;20760;-66
2021/11/28 06:36:47;;;;;;;12.32;6.70;;;2.30;93.00;;;;;;5018312;28;20056;-66
2021/11/28 06:39:32;;;;;;;13.85;8.10;;;2.30;93.00;;;;;;5017926;28;20057;-66
2021/11/28 06:42:26;;;;;;;13.32;6.70;;;2.40;92.60;;;;;;5013216;28;20167;-66
2021/11/28 06:44:52;;;;;;;13.50;7.50;;;2.40;92.40;;;;;;5032394;28;20059;-66
2021/11/28 06:47:18;;;;;;;9.95;6.45;;;2.30;92.40;;;;;;5035760;28;20507;-66
2021/11/28 06:49:45;;;;;;;11.32;6.63;;;2.30;92.50;;;;;;5035913;28;20129;-66
2021/11/28 06:52:43;;;;;;;13.48;7.60;;;2.30;92.60;;;;;;5019067;28;20409;-66
2021/11/28 06:55:30;;;;;;;13.13;7.10;;;2.30;92.20;;;;;;5013490;28;20060;-67
2021/11/28 06:58:28;;;;;;;14.52;7.88;;;2.20;92.10;;;;;;5006533;28;20099;-66
2021/11/28 07:00:54;;;;;;;13.93;7.05;;;2.20;92.20;;;;;;5028634;28;20029;-66
2021/11/28 07:03:21;;;;;;;12.43;6.82;;;2.10;92.30;;;;;;5014617;28;20446;-66
2021/11/28 07:05:50;;;;;;;13.48;8.10;;;2.10;92.60;;;;;;5022592;28;20108;-66
2021/11/28 07:08:17;;;;;;;15.30;8.50;;;2.10;92.50;;;;;;5019049;28;20036;-66
2021/11/28 07:10:43;;;;;;;13.73;7.75;;;2.10;92.20;;;;;;5019713;28;20033;-66
2021/11/28 07:13:14;;;;;;;16.65;7.93;;;2.10;92.10;;;;;;4997172;28;20042;-66
2021/11/28 07:15:40;;;;;;;12.68;7.35;;;2.10;92.10;;;;;;5016444;28;20083;-69
2021/11/28 07:18:08;;;;;;;12.48;7.03;;;2.10;92.30;;;;;;5011794;28;20119;-67
2021/11/28 07:21:03;;;;;;;12.38;6.88;;;2.10;92.40;;;;;;5005246;28;20120;-67
2021/11/28 07:23:30;;;;;;;15.98;8.32;;;2.10;92.60;;;;;;5020301;28;20035;-67
2021/11/28 07:26:00;;;;;;;16.63;8.48;;;2.10;92.60;;;;;;5031003;28;20053;-67
2021/11/28 07:28:38;;;;;;;14.02;6.80;;;2.10;92.60;;;;;;5016451;28;20036;-68
2021/11/28 07:31:05;;;;;;;12.18;7.28;;;2.10;92.40;;;;;;5017363;28;20085;-66
2021/11/28 07:33:57;;;;;;;15.25;10.90;;;2.10;92.60;;;;;;5017617;28;20053;-67
2021/11/28 07:36:52;;;;;;;16.05;8.32;;;2.20;92.60;;;;;;5015252;28;20060;-64
2021/11/28 07:39:20;;;;;;;14.75;8.00;;;2.20;92.60;;;;;;5012919;28;20379;-67
2021/11/28 07:41:50;;;;;;;12.88;7.90;;;2.30;92.50;;;;;;4997767;28;20037;-66
2021/11/28 07:44:35;;;;;;;12.93;7.28;;;2.30;92.50;;;;;;5015430;28;20068;-70
2021/11/28 07:47:23;;;;;;;15.52;7.45;;;2.40;92.60;;;;;;5017170;28;20563;-66
2021/11/28 07:50:22;;;;;;;15.93;7.35;;;2.40;92.40;;;;;;4999728;28;20040;-67
2021/11/28 07:52:49;;;;;;;12.70;6.75;;;2.50;92.40;;;;;;5015464;28;20029;-66
2021/11/28 07:55:22;;;;;;;14.27;7.07;;;2.50;92.30;;;;;;5019000;28;20647;-66
2021/11/28 07:57:59;;;;;;;15.60;7.93;;;2.60;92.30;;;;;;5011167;28;20038;-66
2021/11/28 08:00:34;;;;;;;14.10;7.95;;;2.60;92.20;;;;;;5013055;28;20048;-66
2021/11/28 08:03:08;;;;;;;13.35;7.20;;;2.70;92.10;;;;;;5018276;28;20875;-66
2021/11/28 08:05:58;;;;;;;12.13;6.90;;;2.70;92.00;;;;;;5014342;28;20048;-65
2021/11/28 08:08:38;;;;;;;11.43;6.40;;;2.80;92.00;;;;;;5032987;28;20056;-62
2021/11/28 08:11:22;;;;;;;12.50;7.45;;;2.90;92.10;;;;;;5006706;28;20041;-66
2021/11/28 08:13:49;;;;;;;13.43;6.95;;;3.00;92.00;;;;;;5014099;28;20029;-63
2021/11/28 08:16:16;;;;;;;11.95;7.40;;;3.10;91.80;;;;;;5018149;28;20128;-65
2021/11/28 08:18:42;;;;;;;11.90;7.53;;;3.10;91.80;;;;;;5015640;28;20040;-66
2021/11/28 08:21:08;;;;;;;11.93;6.15;;;3.20;91.70;;;;;;5011457;28;20033;-66
2021/11/28 08:23:35;;;;;;;22.65;9.55;;;3.20;91.50;;;;;;5015786;28;20071;-66
2021/11/28 08:26:03;;;;;;;15.25;7.65;;;3.30;91.40;;;;;;5008790;28;20418;-66
2021/11/28 08:28:29;;;;;;;10.65;6.65;;;3.40;91.40;;;;;;5013948;28;20832;-65
2021/11/28 08:30:55;;;;;;;13.38;6.63;;;3.50;91.30;;;;;;5017716;28;20079;-65
2021/11/28 08:33:53;;;;;;;11.85;6.68;;;3.50;91.30;;;;;;4993147;28;20057;-65
2021/11/28 08:36:32;;;;;;;31.77;11.07;;;3.60;91.20;;;;;;5024696;28;20048;-65
2021/11/28 08:38:58;;;;;;;17.15;8.15;;;3.70;90.90;;;;;;5037243;28;20037;-65
2021/11/28 08:41:27;;;;;;;15.95;7.88;;;3.70;90.90;;;;;;5019164;28;20037;-65
2021/11/28 08:43:54;;;;;;;12.63;7.28;;;3.80;90.80;;;;;;5017942;28;20083;-65
2021/11/28 08:46:20;;;;;;;14.90;7.18;;;3.90;90.80;;;;;;5019693;28;20029;-64
2021/11/28 08:48:48;;;;;;;14.50;7.45;;;4.00;90.80;;;;;;5023873;28;20782;-65
2021/11/28 08:51:14;;;;;;;12.27;7.28;;;4.10;90.20;;;;;;5019715;28;20061;-65
2021/11/28 08:53:41;;;;;;;13.00;6.68;;;4.20;90.40;;;;;;5025165;28;20076;-65
2021/11/28 08:56:07;;;;;;;14.05;6.38;;;4.40;89.60;;;;;;5024645;28;20112;-64
2021/11/28 08:58:33;;;;;;;11.50;6.65;;;4.60;88.30;;;;;;5017602;28;20840;-65
2021/11/28 09:00:59;;;;;;;11.18;6.32;;;5.30;85.80;;;;;;5021724;28;20038;-65
2021/11/28 09:03:26;;;;;;;12.00;6.13;;;6.40;82.40;;;;;;5026179;28;20033;-65
2021/11/28 09:05:51;;;;;;;14.18;6.57;;;7.30;77.50;;;;;;5021432;28;20038;-65
2021/11/28 09:08:18;;;;;;;13.50;6.00;;;8.20;73.30;;;;;;5021353;28;20029;-65
2021/11/28 09:10:44;;;;;;;10.05;6.00;;;9.10;70.40;;;;;;5023872;28;20025;-65
2021/11/28 09:13:12;;;;;;;13.35;6.03;;;10.00;64.50;;;;;;5016022;28;20326;-65
2021/11/28 09:15:38;;;;;;;11.23;6.20;;;10.80;62.00;;;;;;5023496;28;20038;-65
2021/11/28 09:18:12;;;;;;;8.43;5.68;;;11.60;59.80;;;;;;5021350;28;20029;-65
2021/11/28 09:20:43;;;;;;;7.32;4.78;;;12.20;56.10;;;;;;5021199;28;20107;-65
2021/11/28 09:25:35;;;;;;;8.95;5.35;;;12.30;56.10;;;;;;5021181;28;20025;-65
2021/11/28 09:28:04;;;;;;;8.20;5.72;;;11.40;57.30;;;;;;5019361;28;20390;-65
2021/11/28 09:30:30;;;;;;;11.88;5.28;;;10.70;60.40;;;;;;5026579;28;20545;-65
2021/11/28 09:32:58;;;;;;;10.88;5.85;;;10.00;61.50;;;;;;5021746;28;20116;-65
2021/11/28 09:35:24;;;;;;;13.90;5.95;;;9.20;64.70;;;;;;5018505;28;20018;-65
2021/11/28 09:37:52;;;;;;;12.02;7.25;;;8.50;67.40;;;;;;5019141;28;20571;-65
2021/11/28 09:40:18;;;;;;;9.00;5.55;;;8.00;70.60;;;;;;5020721;28;20532;-65
2021/11/28 09:43:06;;;;;;;12.18;6.07;;;7.60;72.50;;;;;;5032497;28;20049;-65
2021/11/28 09:45:32;;;;;;;10.18;6.10;;;7.20;72.30;;;;;;5018296;28;20112;-64
2021/11/28 09:47:59;;;;;;;16.85;8.18;;;6.90;74.50;;;;;;5020750;28;20080;-65
2021/11/28 09:50:26;;;;;;;13.10;7.22;;;6.70;75.90;;;;;;5019935;28;20041;-65
2021/11/28 09:52:54;;;;;;;12.63;7.47;;;6.50;77.10;;;;;;5019056;28;20034;-65
2021/11/28 09:55:22;;;;;;;15.75;7.40;;;6.40;77.80;;;;;;5022492;28;20029;-65
2021/11/28 09:57:49;;;;;;;17.77;9.48;;;6.30;78.00;;;;;;5017778;28;20167;-64
2021/11/28 10:00:16;;;;;;;13.30;7.68;;;6.20;78.80;;;;;;5019117;28;20052;-65
2021/11/28 10:02:42;;;;;;;14.77;7.85;;;6.10;80.20;;;;;;5022635;28;20060;-65
2021/11/28 10:05:13;;;;;;;19.63;8.30;;;6.10;81.70;;;;;;5020737;28;20037;-64
2021/11/28 10:07:46;;;;;;;21.02;7.32;;;6.00;81.80;;;;;;5013293;28;20673;-72
2021/11/28 10:10:13;;;;;;;15.77;7.93;;;6.00;81.50;;;;;;5019516;28;20164;-72
2021/11/28 10:12:42;;;;;;;13.93;8.00;;;5.90;80.60;;;;;;5024272;28;20786;-73
2021/11/28 10:15:14;;;;;;;29.55;9.57;;;5.90;81.20;;;;;;5017747;28;20042;-74
2021/11/28 10:17:40;;;;;;;15.27;6.60;;;5.90;80.60;;;;;;5019385;28;20289;-72
2021/11/28 10:20:15;;;;;;;19.13;8.35;;;5.80;80.80;;;;;;5019124;28;20084;-72
2021/11/28 10:22:43;;;;;;;17.38;7.35;;;5.80;81.40;;;;;;5012437;28;20041;-72
2021/11/28 10:25:30;;;;;;;16.20;8.45;;;5.80;82.00;;;;;;5021954;28;20038;-72
2021/11/28 10:28:09;;;;;;;16.05;7.85;;;5.80;82.20;;;;;;5017579;28;20045;-71
2021/11/28 10:30:38;;;;;;;15.00;6.35;;;5.80;81.60;;;;;;5012402;28;20442;-72
2021/11/28 10:33:13;;;;;;;25.10;8.55;;;5.80;82.00;;;;;;5018990;28;20038;-72
2021/11/28 10:36:08;;;;;;;9.95;5.75;;;5.80;82.00;;;;;;5017530;28;20029;-72
2021/11/28 10:38:40;;;;;;;17.40;7.88;;;5.80;81.60;;;;;;5021484;28;20036;-72
2021/11/28 10:41:21;;;;;;;23.63;9.38;;;5.80;81.80;;;;;;5021565;28;20084;-74
2021/11/28 10:43:47;;;;;;;11.75;7.10;;;5.70;81.60;;;;;;5037038;28;20037;-70
2021/11/28 10:46:31;;;;;;;15.60;6.88;;;5.70;82.00;;;;;;5021538;28;20048;-74
2021/11/28 10:49:19;;;;;;;9.95;5.93;;;5.70;82.70;;;;;;5018034;28;20025;-74
2021/11/28 10:51:47;;;;;;;17.40;8.05;;;5.70;83.70;;;;;;5006907;28;20034;-73
2021/11/28 10:54:36;;;;;;;19.75;7.97;;;5.80;82.60;;;;;;5015514;28;20094;-74
2021/11/28 10:57:14;;;;;;;17.92;8.35;;;5.80;82.60;;;;;;5012496;28;20088;-73
2021/11/28 10:59:43;;;;;;;18.35;7.72;;;5.80;83.10;;;;;;5016031;28;20214;-73
2021/11/28 11:02:18;;;;;;;18.38;8.80;;;5.80;82.40;;;;;;5020025;28;20038;-73
2021/11/28 11:04:44;;;;;;;19.27;9.98;;;5.80;82.00;;;;;;5017899;28;20029;-73
2021/11/28 11:07:13;;;;;;;22.58;9.10;;;5.80;82.10;;;;;;5010491;28;20057;-73
2021/11/28 11:09:45;;;;;;;16.67;6.40;;;5.80;82.00;;;;;;5009848;28;20033;-73
2021/11/28 11:12:22;;;;;;;20.15;7.68;;;5.80;82.20;;;;;;5015330;28;20662;-73
2021/11/28 11:14:52;;;;;;;12.27;6.95;;;5.70;82.10;;;;;;5014914;28;20849;-73
2021/11/28 11:17:19;;;;;;;17.15;8.95;;;5.60;81.80;;;;;;5012508;28;20034;-73
2021/11/28 11:19:48;;;;;;;13.02;6.90;;;5.60;82.20;;;;;;5014221;28;20755;-74
2021/11/28 11:22:27;;;;;;;15.55;8.30;;;5.70;82.90;;;;;;5014125;28;20029;-73
2021/11/28 11:25:03;;;;;;;13.45;5.72;;;5.70;82.10;;;;;;5018509;28;20033;-72
2021/11/28 11:27:33;;;;;;;;;;;5.80;82.60;;;;;;5017555;28;20555;-72
2021/11/28 11:30:04;;;;;;;10.10;5.55;;;5.80;82.80;;;;;;5012068;28;19976;-72
2021/11/28 11:32:39;;;;;;;11.70;5.63;;;5.70;81.40;;;;;;5009299;28;20064;-73
2021/11/28 11:35:09;;;;;;;12.77;5.68;;;5.80;81.60;;;;;;5016138;28;20445;-73
2021/11/28 11:37:36;;;;;;;13.05;7.55;;;5.80;82.30;;;;;;5020982;28;20112;-72
2021/11/28 11:40:09;;;;;;;12.15;6.72;;;5.90;82.90;;;;;;5013689;28;20262;-73
2021/11/28 11:42:39;;;;;;;10.52;6.00;;;5.90;81.60;;;;;;5013642;28;20474;-73
2021/11/28 11:45:07;;;;;;;15.75;5.88;;;5.90;81.80;;;;;;5009507;28;20433;-73
2021/11/28 11:47:33;;;;;;;10.68;5.82;;;5.90;81.70;;;;;;5016976;28;20056;-72
2021/11/28 11:49:59;;;;;;;14.55;5.75;;;6.00;82.70;;;;;;5015523;28;20470;-73
2021/11/28 11:52:26;;;;;;;15.27;5.78;;;6.00;82.10;;;;;;5016256;28;20052;-73
2021/11/28 11:55:00;;;;;;;16.58;7.13;;;6.00;82.20;;;;;;5012282;28;20054;-73
2021/11/28 11:57:35;;;;;;;13.82;6.10;;;6.00;81.90;;;;;;5013311;28;20115;-73
2021/11/28 12:00:07;;;;;;;12.02;5.45;;;6.10;82.20;;;;;;5016383;28;20044;-73
2021/11/28 12:02:53;;;;;;;12.75;5.85;;;6.10;81.40;;;;;;5011280;28;20527;-74
2021/11/28 12:05:24;;;;;;;10.43;5.55;;;6.10;81.80;;;;;;5018659;28;20029;-74
2021/11/28 12:07:53;;;;;;;11.30;5.32;;;6.20;80.80;;;;;;5014585;28;20026;-75
2021/11/28 12:10:39;;;;;;;15.65;5.90;;;6.10;81.00;;;;;;5008769;28;20495;-71
2021/11/28 12:13:25;;;;;;;9.02;5.22;;;6.20;80.80;;;;;;5019072;28;20030;-72
2021/11/28 12:16:14;;;;;;;9.48;5.03;;;6.20;80.30;;;;;;5015759;28;20036;-75
2021/11/28 12:18:47;;;;;;;10.38;5.13;;;6.20;79.80;;;;;;5018883;28;20678;-74
2021/11/28 12:21:21;;;;;;;6.97;4.43;;;6.30;79.60;;;;;;5033458;28;20679;-74
2021/11/28 12:24:09;;;;;;;9.50;4.72;;;6.30;79.70;;;;;;5019051;28;20029;-76
2021/11/28 12:26:52;;;;;;;14.23;5.05;;;6.30;80.20;;;;;;5013544;28;20452;-76
2021/11/28 12:29:25;;;;;;;7.80;4.60;;;6.30;81.50;;;;;;5017770;28;20437;-75
2021/11/28 12:31:52;;;;;;;7.95;4.68;;;6.30;81.40;;;;;;5032784;28;20120;-75
2021/11/28 12:34:22;;;;;;;12.13;5.00;;;6.40;81.70;;;;;;5032654;28;20116;-76
2021/11/28 12:36:50;;;;;;;12.30;5.72;;;6.40;82.20;;;;;;5031573;28;20042;-76
2021/11/28 12:39:23;;;;;;;9.85;4.10;;;6.40;81.90;;;;;;5015335;28;20095;-75
2021/11/28 12:41:52;;;;;;;10.45;4.88;;;6.40;80.60;;;;;;5009734;28;20037;-74
2021/11/28 12:44:25;;;;;;;7.60;4.75;;;6.40;80.50;;;;;;5014865;28;20043;-73
2021/11/28 12:47:04;;;;;;;9.70;4.95;;;6.50;79.40;;;;;;5015911;28;20037;-74
2021/11/28 12:49:45;;;;;;;12.57;5.25;;;6.50;78.90;;;;;;5012397;28;20034;-72
2021/11/28 12:52:15;;;;;;;11.60;5.07;;;6.50;79.90;;;;;;5014936;28;20486;-75
2021/11/28 12:54:45;;;;;;;10.88;4.88;;;6.50;80.00;;;;;;5012153;28;20042;-75
2021/11/28 12:57:20;;;;;;;10.88;4.82;;;6.50;79.10;;;;;;5013244;28;20072;-75
2021/11/28 13:00:24;;;;;;;11.75;4.95;;;6.50;79.60;;;;;;5031817;28;20065;-74
2021/11/28 13:03:00;;;;;;;10.38;4.50;;;6.50;78.30;;;;;;5014323;28;20037;-75
2021/11/28 13:05:46;;;;;;;10.40;4.40;;;6.50;79.20;;;;;;5014074;28;20674;-74
2021/11/28 13:08:11;;;;;;;13.50;4.47;;;6.50;79.40;;;;;;5017659;28;20022;-74
2021/11/28 13:10:45;;;;;;;15.48;4.20;;;6.50;78.60;;;;;;5020728;28;20099;-74
2021/11/28 13:13:20;;;;;;;10.95;4.60;;;6.50;79.10;;;;;;5010710;28;20017;-74
2021/11/28 13:15:48;;;;;;;12.70;5.53;;;6.50;78.60;;;;;;5013088;28;20095;-73